createdAt,value
2023-10-09T00:00:51.447Z,92
2023-10-09T00:04:16.946Z,92
2023-10-09T00:07:41.898Z,92
2023-10-09T00:11:07.124Z,93
2023-10-09T00:14:32.419Z,93
2023-10-09T00:17:57.675Z,93
2023-10-09T00:21:22.951Z,93
2023-10-09T00:24:48.113Z,94
2023-10-09T00:28:13.361Z,93
2023-10-09T00:31:38.596Z,93
2023-10-09T00:35:03.861Z,94
2023-10-09T00:38:29.152Z,94
2023-10-09T00:41:54.346Z,94
2023-10-09T00:45:19.545Z,94
2023-10-09T00:48:44.753Z,94
2023-10-09T00:52:09.981Z,95
2023-10-09T00:55:35.205Z,95
2023-10-09T00:59:00.388Z,95
2023-10-09T01:02:25.636Z,95
2023-10-09T01:05:50.777Z,95
2023-10-09T01:09:16.023Z,95
2023-10-09T01:12:41.337Z,95
2023-10-09T01:16:06.513Z,95
2023-10-09T01:19:31.709Z,95
2023-10-09T01:22:56.963Z,95
2023-10-09T01:26:22.151Z,94
2023-10-09T01:29:47.942Z,95
2023-10-09T01:33:12.737Z,95
2023-10-09T01:36:37.876Z,95
2023-10-09T01:40:03.106Z,95
2023-10-09T01:43:28.340Z,95
2023-10-09T01:46:53.601Z,95
2023-10-09T01:50:18.859Z,95
2023-10-09T01:53:43.982Z,94
2023-10-09T01:57:09.262Z,95
2023-10-09T02:00:34.430Z,95
2023-10-09T02:03:59.705Z,95
2023-10-09T02:07:24.898Z,95
2023-10-09T02:10:50.127Z,95
2023-10-09T02:14:15.333Z,95
2023-10-09T02:17:40.576Z,96
2023-10-09T02:21:05.929Z,96
2023-10-09T02:24:31.019Z,96
2023-10-09T02:27:56.216Z,96
2023-10-09T02:31:21.461Z,96
2023-10-09T02:34:46.675Z,96
2023-10-09T02:38:11.926Z,96
2023-10-09T02:41:37.111Z,96
2023-10-09T02:45:02.390Z,96
2023-10-09T02:48:27.594Z,96
2023-10-09T02:51:52.791Z,96
2023-10-09T02:55:18.018Z,96
2023-10-09T02:58:43.216Z,96
2023-10-09T03:02:08.459Z,96
2023-10-09T03:05:33.658Z,96
2023-10-09T03:08:58.896Z,96
2023-10-09T03:12:24.146Z,96
2023-10-09T03:15:49.332Z,97
2023-10-09T03:19:14.545Z,97
2023-10-09T03:22:39.730Z,97
2023-10-09T03:26:15.222Z,98
2023-10-09T03:29:30.170Z,97
2023-10-09T03:32:55.656Z,97
2023-10-09T03:36:20.590Z,97
2023-10-09T03:39:46.511Z,97
2023-10-09T03:43:11.740Z,97
2023-10-09T03:46:37.142Z,97
2023-10-09T03:50:02.176Z,97
2023-10-09T03:53:27.419Z,97
2023-10-09T03:56:52.615Z,97
2023-10-09T04:00:17.846Z,97
2023-10-09T04:03:43.260Z,97
2023-10-09T04:07:08.266Z,97
2023-10-09T04:10:33.483Z,96
2023-10-09T04:13:58.715Z,96
2023-10-09T04:17:23.962Z,96
2023-10-09T04:20:49.167Z,96
2023-10-09T04:24:14.582Z,96
2023-10-09T04:27:39.644Z,95
2023-10-09T04:31:04.824Z,95
2023-10-09T04:34:30.139Z,95
2023-10-09T04:37:55.247Z,95
2023-10-09T04:41:20.501Z,95
2023-10-09T04:44:45.693Z,95
2023-10-09T04:48:11.020Z,95
2023-10-09T04:51:36.192Z,95
2023-10-09T04:55:01.380Z,94
2023-10-09T04:58:26.561Z,94
2023-10-09T05:01:51.850Z,94
2023-10-09T05:05:17.008Z,94
2023-10-09T05:08:42.249Z,94
2023-10-09T05:12:07.666Z,94
2023-10-09T05:15:32.915Z,95
2023-10-09T05:18:58.727Z,94
2023-10-09T05:22:23.256Z,94
2023-10-09T05:25:48.470Z,94
2023-10-09T05:29:13.983Z,94
2023-10-09T05:32:39.009Z,94
2023-10-09T05:36:04.271Z,94
2023-10-09T05:39:29.555Z,94
2023-10-09T05:42:54.777Z,94
2023-10-09T05:46:20.106Z,94
2023-10-09T05:49:45.326Z,94
2023-10-09T05:53:10.600Z,94
2023-10-09T05:56:35.889Z,94
2023-10-09T06:00:01.119Z,94
2023-10-09T06:03:26.528Z,93
2023-10-09T06:06:51.722Z,93
2023-10-09T06:10:17.013Z,93
2023-10-09T06:13:42.273Z,93
2023-10-09T06:17:07.522Z,93
2023-10-09T06:20:33.223Z,93
2023-10-09T06:23:58.471Z,93
2023-10-09T06:27:23.729Z,93
2023-10-09T06:30:49.039Z,93
2023-10-09T06:34:14.577Z,92
2023-10-09T06:37:39.636Z,93
2023-10-09T06:41:04.853Z,92
2023-10-09T06:44:30.128Z,92
2023-10-09T06:47:55.540Z,92
2023-10-09T06:51:20.840Z,92
2023-10-09T06:54:46.265Z,92
2023-10-09T06:58:18.823Z,91
2023-10-09T07:01:44.253Z,92
2023-10-09T07:05:10.585Z,91
2023-10-09T07:08:34.655Z,91
2023-10-09T07:11:59.918Z,90
2023-10-09T07:15:25.208Z,90
2023-10-09T07:18:50.697Z,90
2023-10-09T07:22:15.706Z,90
2023-10-09T07:25:41.119Z,90
2023-10-09T07:29:06.399Z,90
2023-10-09T07:32:31.660Z,90
2023-10-09T07:35:56.954Z,89
2023-10-09T07:39:22.185Z,89
2023-10-09T07:42:47.480Z,89
2023-10-09T07:46:12.746Z,89
2023-10-09T07:49:37.947Z,89
2023-10-09T07:53:03.179Z,89
2023-10-09T07:56:28.614Z,89
2023-10-09T07:59:53.843Z,89
2023-10-09T08:03:19.175Z,89
2023-10-09T08:07:01.650Z,89
2023-10-09T08:10:10.950Z,89
2023-10-09T08:13:34.686Z,89
2023-10-09T08:16:59.904Z,89
2023-10-09T08:20:25.151Z,89
2023-10-09T08:23:50.314Z,90
2023-10-09T08:27:15.594Z,90
2023-10-09T08:30:40.790Z,90
2023-10-09T08:37:31.260Z,90
2023-10-09T08:40:56.528Z,90
2023-10-09T08:44:21.735Z,90
2023-10-09T08:47:47.078Z,90
2023-10-09T08:51:12.306Z,90
2023-10-09T08:54:37.606Z,91
2023-10-09T08:58:02.937Z,91
2023-10-09T09:01:28.241Z,91
2023-10-09T09:04:53.523Z,90
2023-10-09T09:08:18.722Z,91
2023-10-09T09:11:44.142Z,91
2023-10-09T09:15:09.136Z,91
2023-10-09T09:18:34.397Z,91
2023-10-09T09:21:59.630Z,91
2023-10-09T09:25:24.909Z,91
2023-10-09T09:28:50.109Z,91
2023-10-09T09:32:15.270Z,90
2023-10-09T09:35:40.491Z,91
2023-10-09T09:39:05.746Z,91
2023-10-09T09:42:31.021Z,90
2023-10-09T09:45:57.007Z,91
2023-10-09T09:49:22.422Z,92
2023-10-09T09:52:47.722Z,92
2023-10-09T09:56:13.019Z,92
2023-10-09T09:59:38.365Z,92
2023-10-09T10:03:03.727Z,92
2023-10-09T10:06:28.875Z,92
2023-10-09T10:09:54.219Z,92
2023-10-09T10:13:19.502Z,92
2023-10-09T10:16:44.782Z,93
2023-10-09T10:20:10.177Z,92
2023-10-09T10:23:35.343Z,92
2023-10-09T10:27:00.660Z,92
2023-10-09T10:30:25.998Z,92
2023-10-09T10:33:51.243Z,92
2023-10-09T10:37:16.546Z,93
2023-10-09T10:40:41.862Z,93
2023-10-09T10:44:07.177Z,93
2023-10-09T10:47:32.399Z,93
2023-10-09T10:50:57.654Z,93
2023-10-09T10:54:23.119Z,93
2023-10-09T10:57:48.325Z,93
2023-10-09T11:01:13.577Z,93
2023-10-09T11:04:38.985Z,93
2023-10-09T11:08:04.144Z,93
2023-10-09T11:11:29.400Z,94
2023-10-09T11:14:54.643Z,93
2023-10-09T11:18:19.960Z,94
2023-10-09T11:21:45.183Z,94
2023-10-09T11:25:10.490Z,94
2023-10-09T11:28:35.776Z,94
2023-10-09T11:32:01.223Z,93
2023-10-09T11:35:26.316Z,94
2023-10-09T11:38:55.143Z,94
2023-10-09T11:42:20.456Z,94
2023-10-09T11:45:45.719Z,94
2023-10-09T11:49:10.974Z,94
2023-10-09T11:52:36.254Z,94
2023-10-09T11:56:01.629Z,94
2023-10-09T11:59:42.062Z,94
2023-10-09T12:03:07.302Z,94
2023-10-09T12:06:32.543Z,94
2023-10-09T12:09:57.933Z,94
2023-10-09T12:13:23.093Z,94
2023-10-09T12:16:48.439Z,94
2023-10-09T12:20:13.833Z,94
2023-10-09T12:23:39.109Z,94
2023-10-09T12:27:04.436Z,94
2023-10-09T12:30:29.711Z,94
2023-10-09T12:33:55.027Z,94
2023-10-09T12:37:20.402Z,94
2023-10-09T12:40:45.696Z,94
2023-10-09T12:44:10.967Z,94
2023-10-09T12:47:36.306Z,94
2023-10-09T12:51:01.529Z,95
2023-10-09T12:54:26.920Z,95
2023-10-09T12:57:52.250Z,95
2023-10-09T13:01:17.581Z,95
2023-10-09T13:04:43.021Z,94
2023-10-09T13:08:09.604Z,94
2023-10-09T13:11:33.302Z,94
2023-10-09T13:14:58.517Z,95
2023-10-09T13:18:23.843Z,95
2023-10-09T13:21:49.036Z,95
2023-10-09T13:25:21.145Z,95
2023-10-09T13:28:39.519Z,95
2023-10-09T13:32:04.764Z,95
2023-10-09T13:35:30.018Z,95
2023-10-09T13:38:55.247Z,95
2023-10-09T13:42:20.587Z,95
2023-10-09T13:45:45.928Z,95
2023-10-09T13:49:11.072Z,95
2023-10-09T13:52:36.385Z,95
2023-10-09T13:56:01.636Z,95
2023-10-09T13:59:26.814Z,95
2023-10-09T14:02:52.118Z,95
2023-10-09T14:06:17.308Z,95
2023-10-09T14:09:42.568Z,95
2023-10-09T14:13:07.794Z,95
2023-10-09T14:16:33.122Z,95
2023-10-09T14:19:58.313Z,95
2023-10-09T14:23:23.580Z,95
2023-10-09T14:26:48.794Z,96
2023-10-09T14:30:14.075Z,96
2023-10-09T14:33:39.308Z,96
2023-10-09T14:37:04.791Z,96
2023-10-09T14:40:30.027Z,96
2023-10-09T14:43:55.394Z,96
2023-10-09T14:47:20.718Z,96
2023-10-09T14:50:46.129Z,96
2023-10-09T14:54:11.427Z,96
2023-10-09T14:57:36.652Z,96
2023-10-09T15:01:02.044Z,96
2023-10-09T15:04:27.249Z,96
2023-10-09T15:07:52.618Z,97
2023-10-09T15:11:17.889Z,97
2023-10-09T15:47:14.391Z,97
2023-10-09T15:50:39.636Z,97
2023-10-09T15:54:04.949Z,97
2023-10-09T15:57:30.184Z,97
2023-10-09T16:02:12.383Z,97
2023-10-09T16:05:37.727Z,97
2023-10-09T16:09:02.907Z,97
2023-10-09T16:12:28.184Z,97
2023-10-09T16:15:54.176Z,97
2023-10-09T16:19:20.397Z,97
2023-10-09T16:22:45.672Z,96
2023-10-09T16:26:10.960Z,96
2023-10-09T16:29:36.313Z,97
2023-10-09T16:33:01.972Z,97
2023-10-09T16:36:27.026Z,97
2023-10-09T16:39:52.325Z,97
2023-10-09T16:43:17.538Z,96
2023-10-09T16:46:45.890Z,96
2023-10-09T16:50:11.098Z,96
2023-10-09T16:53:37.234Z,96
2023-10-09T16:57:02.437Z,96
2023-10-09T17:00:27.686Z,96
2023-10-09T17:03:53.006Z,95
2023-10-09T17:07:18.178Z,95
2023-10-09T17:10:43.374Z,95
2023-10-09T17:14:08.635Z,95
2023-10-09T17:17:33.827Z,95
2023-10-09T17:20:59.368Z,95
2023-10-09T17:24:24.702Z,95
2023-10-09T17:27:49.961Z,95
2023-10-09T17:31:15.294Z,95
2023-10-09T17:34:40.630Z,95
2023-10-09T17:38:09.831Z,95
2023-10-09T17:41:35.164Z,95
2023-10-09T17:45:00.558Z,95
2023-10-09T17:48:26.003Z,95
2023-10-09T17:51:51.323Z,95
2023-10-09T17:55:16.623Z,94
2023-10-09T17:59:13.933Z,94
2023-10-09T18:02:39.196Z,94
2023-10-09T18:06:04.419Z,94
2023-10-09T18:09:29.776Z,95
2023-10-09T18:12:55.072Z,94
2023-10-09T18:16:21.464Z,94
2023-10-09T18:19:46.706Z,94
2023-10-09T18:23:13.258Z,94
2023-10-09T18:26:38.592Z,94
2023-10-09T18:30:03.942Z,94
2023-10-09T18:33:29.294Z,94
2023-10-09T18:36:54.648Z,94
2023-10-09T18:40:19.948Z,94
2023-10-09T18:43:45.218Z,94
2023-10-09T18:47:10.477Z,94
2023-10-09T18:50:35.782Z,94
2023-10-09T18:54:01.069Z,94
2023-10-09T18:57:26.462Z,94
2023-10-09T19:00:51.974Z,94
2023-10-09T19:04:16.985Z,94
2023-10-09T19:07:42.345Z,93
2023-10-09T19:11:07.577Z,93
2023-10-09T19:14:32.858Z,93
2023-10-09T19:17:58.225Z,93
2023-10-09T19:21:23.464Z,93
2023-10-09T19:24:48.772Z,93
2023-10-09T19:28:14.045Z,93
2023-10-09T19:31:39.400Z,93
2023-10-09T19:35:04.741Z,92
2023-10-09T19:38:30.024Z,93
2023-10-09T19:41:55.308Z,93
2023-10-09T19:45:20.718Z,93
2023-10-09T19:48:45.981Z,93
2023-10-09T19:52:11.253Z,92
2023-10-09T19:55:36.589Z,92
2023-10-09T19:59:01.983Z,92
2023-10-09T20:02:27.223Z,92
2023-10-09T20:05:52.581Z,92
2023-10-09T20:09:17.850Z,92
2023-10-09T20:12:43.142Z,92
2023-10-09T20:16:08.459Z,92
2023-10-09T20:19:33.828Z,92
2023-10-09T20:22:59.196Z,92
2023-10-09T20:26:24.466Z,93
2023-10-09T20:29:49.793Z,93
2023-10-09T20:33:15.108Z,93
2023-10-09T20:36:40.421Z,93
2023-10-09T20:40:05.780Z,94
2023-10-09T20:43:31.056Z,94
2023-10-09T20:46:56.339Z,94
2023-10-09T20:50:21.646Z,94
2023-10-09T20:53:46.926Z,94
2023-10-09T20:57:12.066Z,94
2023-10-09T21:00:37.245Z,94
2023-10-09T21:04:02.492Z,94
2023-10-09T21:07:27.643Z,94
2023-10-09T21:10:52.863Z,94
2023-10-09T21:14:18.153Z,94
2023-10-09T21:17:43.356Z,94
2023-10-09T21:21:08.509Z,94
2023-10-09T21:24:33.733Z,94
2023-10-09T21:27:58.955Z,94
2023-10-09T21:31:24.314Z,94
2023-10-09T21:34:49.398Z,94
2023-10-09T21:38:14.622Z,95
2023-10-09T21:41:39.784Z,94
2023-10-09T21:45:04.993Z,94
2023-10-09T21:48:30.253Z,94
2023-10-09T21:51:55.412Z,94
2023-10-09T21:55:20.618Z,94
2023-10-09T21:58:45.823Z,93
2023-10-09T22:02:12.069Z,93
2023-10-09T22:05:36.297Z,93
2023-10-09T22:09:01.492Z,93
2023-10-09T22:12:26.689Z,93
2023-10-09T22:15:51.896Z,93
2023-10-09T22:19:17.434Z,93
2023-10-09T22:22:42.657Z,93
2023-10-09T22:26:07.901Z,93
2023-10-09T22:29:33.084Z,93
2023-10-09T22:32:58.252Z,93
2023-10-09T22:36:28.815Z,92
2023-10-09T22:39:48.740Z,92
2023-10-09T22:43:13.925Z,93
2023-10-09T22:46:39.117Z,93
2023-10-09T22:50:04.397Z,93
2023-10-09T22:53:29.595Z,93
2023-10-09T22:56:54.798Z,93
2023-10-09T23:00:19.999Z,93
2023-10-09T23:03:45.341Z,93
2023-10-09T23:07:10.392Z,93
2023-10-09T23:10:35.578Z,93
2023-10-09T23:14:00.823Z,93
2023-10-09T23:17:26.019Z,93
2023-10-09T23:20:51.194Z,93
2023-10-09T23:24:16.409Z,93
2023-10-09T23:27:41.612Z,93
2023-10-09T23:31:06.876Z,93
2023-10-09T23:34:32.023Z,93
2023-10-09T23:37:57.266Z,93
2023-10-09T23:41:22.462Z,93
2023-10-09T23:44:47.632Z,93
2023-10-09T23:48:12.925Z,93
2023-10-09T23:51:38.033Z,93
2023-10-09T23:55:03.262Z,93
2023-10-09T23:58:28.443Z,93
